OIMB  Birjand  Airport

Birjand, Iran

Add Bookmark
ICAO OIMB
Type Airport
Status Operational
Latitude
32° 53' 53" N
32.898102
Longitude
59° 15' 57" E
59.266102
Local (DST + 5) UTC (GMT + 4)
Aug 28, 2015 01:57 Aug 28, 2015 09:27
Sunrise-Sunset Local UTC
Begin Civil Twilight 05:38 01:08
Sunrise 06:03 01:33
Sunset 07:04 14:34
End Civil Twilight 07:30 15:00
VFR
VFR
MVFR
MVFR
IFR
IFR
LIFR
LIFR
Unknown
Unavailable

Current Weather

METAR Observed VFR
OIMB 280900Z 06008KT CAVOK 31/M01 Q1019 Fri, Aug 28, 2015 @ 09:00 UTC
(27 Minutes ago)
Visual Flight Rules
Wind Visibility Conditions
060° at 8 knots (15 kph) 10 km or more
  • No significant weather
Temperatures Readings Precipitation
Current Temp
31°C
88°F
Dewpoint
-1°C
30°F
Humidity 13%
Altimeter 30.09" Hg
Sea Level Pressure 1,019 mb
Field Elevation
1,491 m
4,892 ft
None Recorded
-
-

CheckWX.com is intended as a tool to help pilots better visualize weather data. It is not intended as a substitute for an official weather briefing obtained from a Flight Service Station. CheckWX.com does not meet the FAA requirements for an official pre-flight weather briefing. Therefore, it's important that pilots still call and obtain an official FSS pre-flight weather briefing.

© 2007-2015 CheckWX.com
09:27:48 UTC